Temuco, Chile
Current Conditions -  °F | °C
As of 2:00 AM on Saturday 20 Dec 2014 (Local Time) from SCQP Reporting Station
Broken Clouds Broken Clouds  
Wind Chill: 44°   Ceiling: 4600
Heat Index: 46°   Visibility: 6mi
Dew Point: 41°   Wind: 5mph
Humidity: 81%   Direction: NA
Pressure: 29.94"   Gusts: NA
Location:  38.73°S, 72.58°W
Report Text: SCQP 200600Z VRB04KT 9999 BKN046 BKN130 08/05 Q1014
Loading
Personal Weather Stations






























Interactive Weather Map New forecast layout! Learn more

10-Day Weather Forecast

Advertisements
Track Severe Weather on mobile